createdAt,value
2018-03-29T00:00:17.897Z,6.20
2018-03-29T00:02:46.726Z,6.80
2018-03-29T00:05:15.560Z,6.33
2018-03-29T00:07:44.387Z,6.50
2018-03-29T00:10:14.010Z,5.70
2018-03-29T00:12:44.180Z,6.63
2018-03-29T00:15:13.016Z,6.50
2018-03-29T00:17:41.896Z,6.27
2018-03-29T00:20:11.687Z,6.40
2018-03-29T00:22:41.287Z,6.27
2018-03-29T00:25:10.621Z,6.73
2018-03-29T00:27:39.478Z,6.63
2018-03-29T00:30:09.403Z,7.13
2018-03-29T00:32:39.034Z,7.10
2018-03-29T00:35:07.841Z,7.50
2018-03-29T00:37:36.677Z,8.53
2018-03-29T00:40:05.504Z,10.23
2018-03-29T00:42:34.344Z,11.33
2018-03-29T00:45:03.942Z,14.07
2018-03-29T00:47:33.915Z,14.33
2018-03-29T00:50:02.745Z,15.30
2018-03-29T00:52:32.357Z,16.20
2018-03-29T00:55:01.951Z,17.70
2018-03-29T00:57:31.570Z,17.40
2018-03-29T01:00:01.175Z,17.63
2018-03-29T01:02:30.786Z,16.80
2018-03-29T01:05:00.405Z,18.30
2018-03-29T01:07:30.010Z,17.97
2018-03-29T01:09:58.964Z,17.70
2018-03-29T01:12:27.785Z,17.10
2018-03-29T01:14:57.388Z,18.77
2018-03-29T01:17:26.990Z,20.67
2018-03-29T01:19:56.599Z,18.40
2018-03-29T01:22:26.210Z,21.33
2018-03-29T01:24:56.659Z,19.77
2018-03-29T01:27:25.510Z,20.30
2018-03-29T01:29:54.347Z,23.83
2018-03-29T01:32:35.163Z,23.03
2018-03-29T01:35:04.005Z,23.23
2018-03-29T01:37:32.873Z,22.87
2018-03-29T01:40:01.723Z,23.43
2018-03-29T01:42:30.559Z,25.00
2018-03-29T01:44:59.410Z,23.87
2018-03-29T01:47:28.269Z,23.17
2018-03-29T01:49:57.861Z,22.00
2018-03-29T01:52:27.502Z,19.87
2018-03-29T01:54:56.360Z,21.80
2018-03-29T01:57:25.191Z,21.87
2018-03-29T01:59:54.034Z,19.83
2018-03-29T02:02:23.685Z,19.37
2018-03-29T02:04:52.541Z,19.00
2018-03-29T02:07:22.153Z,19.63
2018-03-29T02:09:51.741Z,21.80
2018-03-29T02:12:20.588Z,20.80
2018-03-29T02:14:49.439Z,21.83
2018-03-29T02:17:19.047Z,21.10
2018-03-29T02:19:48.644Z,21.87
2018-03-29T02:22:18.262Z,22.77
2018-03-29T02:24:47.135Z,22.03
2018-03-29T02:27:17.481Z,21.67
2018-03-29T02:29:46.309Z,21.00
2018-03-29T02:32:15.155Z,22.10
2018-03-29T02:34:44.760Z,22.20
2018-03-29T02:37:14.390Z,22.00
2018-03-29T02:39:43.223Z,19.57
2018-03-29T02:42:12.071Z,20.03
2018-03-29T02:44:41.675Z,21.67
2018-03-29T02:47:10.759Z,19.20
2018-03-29T02:49:40.356Z,16.77
2018-03-29T02:52:09.207Z,18.13
2018-03-29T02:54:38.049Z,18.47
2018-03-29T02:57:07.662Z,16.97
2018-03-29T02:59:37.274Z,17.37
2018-03-29T03:02:06.098Z,18.40
2018-03-29T03:04:34.942Z,16.43
2018-03-29T03:07:04.564Z,18.43
2018-03-29T03:09:34.187Z,16.97
2018-03-29T03:12:03.030Z,20.27
2018-03-29T03:14:31.912Z,19.67
2018-03-29T03:17:01.946Z,21.27
2018-03-29T03:19:31.640Z,21.30
2018-03-29T03:22:00.446Z,21.77
2018-03-29T03:24:30.476Z,21.40
2018-03-29T03:26:59.302Z,20.77
2018-03-29T03:29:28.147Z,18.50
2018-03-29T03:31:57.752Z,18.60
2018-03-29T03:34:27.362Z,19.73
2018-03-29T03:36:56.966Z,16.60
2018-03-29T03:39:26.605Z,17.60
2018-03-29T03:41:55.445Z,18.13
2018-03-29T03:44:25.786Z,16.27
2018-03-29T03:46:54.615Z,15.67
2018-03-29T03:49:23.472Z,17.70
2018-03-29T03:51:52.303Z,14.67
2018-03-29T03:54:21.149Z,16.43
2018-03-29T03:56:49.993Z,16.30
2018-03-29T03:59:19.602Z,15.17
2018-03-29T04:01:48.462Z,14.43
2018-03-29T04:04:18.057Z,15.10
2018-03-29T04:06:47.674Z,14.23
2018-03-29T04:09:17.275Z,14.07
2018-03-29T04:11:46.448Z,14.77
2018-03-29T04:14:16.837Z,14.50
2018-03-29T04:16:45.717Z,14.83
2018-03-29T04:19:14.547Z,14.63
2018-03-29T04:21:43.458Z,16.80
2018-03-29T04:24:12.306Z,17.43
2018-03-29T04:26:41.145Z,17.27
2018-03-29T04:29:10.778Z,17.27
2018-03-29T04:31:39.622Z,19.70
2018-03-29T04:34:08.458Z,19.93
2018-03-29T04:36:38.084Z,22.20
2018-03-29T04:39:07.934Z,22.10
2018-03-29T04:41:36.788Z,22.80
2018-03-29T04:44:05.637Z,22.60
2018-03-29T04:46:34.478Z,22.47
2018-03-29T04:49:03.343Z,21.10
2018-03-29T04:51:32.954Z,20.23
2018-03-29T04:54:02.575Z,21.93
2018-03-29T04:56:31.392Z,24.43
2018-03-29T04:59:00.249Z,23.93
2018-03-29T05:01:29.119Z,22.10
2018-03-29T05:03:58.747Z,22.53
2018-03-29T05:06:28.064Z,22.10
2018-03-29T05:08:57.656Z,21.73
2018-03-29T05:11:26.506Z,21.37
2018-03-29T05:13:55.366Z,20.10
2018-03-29T05:16:24.209Z,21.07
2018-03-29T05:18:53.857Z,19.50
2018-03-29T05:21:23.322Z,19.93
2018-03-29T05:23:52.615Z,19.37
2018-03-29T05:26:22.220Z,20.50
2018-03-29T05:28:52.255Z,17.17
2018-03-29T05:31:21.893Z,17.37
2018-03-29T05:33:50.753Z,20.33
2018-03-29T05:36:19.575Z,20.00
2018-03-29T05:38:48.447Z,20.00
2018-03-29T05:41:18.846Z,19.57
2018-03-29T05:43:47.678Z,21.97
2018-03-29T05:46:16.528Z,20.93
2018-03-29T05:48:45.358Z,21.63
2018-03-29T05:51:14.356Z,20.73
2018-03-29T05:53:43.410Z,22.63
2018-03-29T05:56:12.247Z,21.50
2018-03-29T05:58:41.861Z,22.47
2018-03-29T06:01:11.506Z,22.73
2018-03-29T06:03:40.385Z,23.13
2018-03-29T06:06:09.233Z,22.50
2018-03-29T06:08:38.046Z,22.73
2018-03-29T06:11:07.701Z,23.67
2018-03-29T06:13:36.552Z,20.17
2018-03-29T06:16:06.185Z,21.90
2018-03-29T06:18:35.027Z,20.60
2018-03-29T06:21:03.918Z,21.50
2018-03-29T06:23:32.750Z,18.63
2018-03-29T06:26:01.647Z,19.53
2018-03-29T06:28:30.501Z,20.40
2018-03-29T06:31:00.369Z,20.70
2018-03-29T06:33:29.246Z,20.97
2018-03-29T06:35:58.049Z,20.47
2018-03-29T06:38:26.913Z,19.90
2018-03-29T06:40:55.743Z,21.00
2018-03-29T06:43:24.598Z,18.30
2018-03-29T06:45:53.432Z,19.73
2018-03-29T06:48:22.445Z,21.93
2018-03-29T06:50:52.042Z,21.33
2018-03-29T06:53:21.441Z,22.10
2018-03-29T06:55:50.293Z,22.63
2018-03-29T06:58:19.137Z,21.00
2018-03-29T07:00:47.973Z,21.57
2018-03-29T07:03:17.605Z,24.37
2018-03-29T07:05:47.208Z,22.90
2018-03-29T07:08:16.069Z,22.20
2018-03-29T07:10:44.894Z,22.20
2018-03-29T07:13:13.772Z,21.83
2018-03-29T07:15:43.403Z,23.30
2018-03-29T07:18:12.241Z,24.40
2018-03-29T07:20:41.080Z,22.70
2018-03-29T07:23:09.942Z,24.50
2018-03-29T07:25:39.527Z,23.70
2018-03-29T07:28:08.634Z,24.07
2018-03-29T07:30:38.246Z,26.07
2018-03-29T07:33:07.895Z,25.20
2018-03-29T07:35:37.477Z,23.90
2018-03-29T07:38:07.662Z,25.80
2018-03-29T07:40:36.504Z,26.00
2018-03-29T07:43:05.321Z,26.80
2018-03-29T07:45:35.017Z,28.47
2018-03-29T07:48:03.963Z,26.03
2018-03-29T07:50:32.821Z,26.60
2018-03-29T07:53:02.421Z,25.60
2018-03-29T07:55:32.086Z,24.83
2018-03-29T07:58:00.918Z,29.53
2018-03-29T08:00:30.640Z,29.63
2018-03-29T08:02:59.456Z,27.40
2018-03-29T08:05:28.323Z,27.10
2018-03-29T08:07:57.948Z,26.77
2018-03-29T08:10:26.804Z,25.50
2018-03-29T08:12:57.017Z,28.17
2018-03-29T08:15:26.666Z,26.20
2018-03-29T08:17:55.504Z,28.23
2018-03-29T08:20:24.369Z,26.27
2018-03-29T08:22:53.294Z,27.00
2018-03-29T08:25:23.506Z,26.77
2018-03-29T08:27:52.320Z,27.03
2018-03-29T08:30:21.958Z,28.33
2018-03-29T08:32:50.810Z,29.13
2018-03-29T08:35:20.438Z,28.40
2018-03-29T08:37:49.294Z,29.77
2018-03-29T08:40:18.144Z,29.83
2018-03-29T08:42:47.020Z,29.50
2018-03-29T08:45:15.812Z,27.50
2018-03-29T08:47:45.494Z,28.73
2018-03-29T08:50:14.314Z,29.27
2018-03-29T08:52:43.234Z,26.67
2018-03-29T08:55:12.842Z,27.43
2018-03-29T08:57:41.687Z,23.47
2018-03-29T09:00:11.392Z,18.33
2018-03-29T09:02:40.244Z,16.30
2018-03-29T09:05:09.851Z,17.20
2018-03-29T09:07:39.496Z,16.40
2018-03-29T09:10:08.329Z,15.43
2018-03-29T09:12:37.169Z,15.30
2018-03-29T09:15:06.042Z,13.33
2018-03-29T09:17:35.322Z,16.50
2018-03-29T09:20:04.179Z,15.40
2018-03-29T09:22:33.017Z,16.70
2018-03-29T09:25:02.635Z,15.83
2018-03-29T09:27:31.477Z,17.60
2018-03-29T09:30:00.334Z,17.67
2018-03-29T09:32:29.186Z,18.30
2018-03-29T09:34:58.806Z,20.70
2018-03-29T09:37:28.498Z,21.30
2018-03-29T09:39:57.327Z,24.60
2018-03-29T09:42:26.197Z,24.73
2018-03-29T09:44:55.829Z,29.23
2018-03-29T09:47:24.666Z,28.50
2018-03-29T09:49:53.504Z,29.73
2018-03-29T09:52:22.347Z,28.63
2018-03-29T09:54:51.201Z,30.23
2018-03-29T09:57:20.833Z,28.50
2018-03-29T09:59:49.706Z,31.27
2018-03-29T10:02:19.910Z,31.47
2018-03-29T10:04:54.325Z,34.37
2018-03-29T10:07:23.959Z,35.20
2018-03-29T10:09:53.562Z,33.40
2018-03-29T10:12:23.159Z,33.07
2018-03-29T10:14:52.299Z,34.60
2018-03-29T10:17:22.001Z,35.53
2018-03-29T10:19:50.864Z,34.30
2018-03-29T10:22:19.692Z,33.07
2018-03-29T10:24:48.517Z,34.77
2018-03-29T10:27:17.375Z,34.93
2018-03-29T10:29:46.210Z,35.60
2018-03-29T10:32:15.047Z,33.97
2018-03-29T10:34:43.899Z,36.73
2018-03-29T10:37:13.522Z,35.97
2018-03-29T10:39:42.498Z,33.43
2018-03-29T10:42:12.115Z,32.20
2018-03-29T10:44:41.743Z,32.83
2018-03-29T10:47:10.582Z,31.60
2018-03-29T10:49:41.895Z,30.43
2018-03-29T10:52:12.264Z,26.90
2018-03-29T10:54:41.874Z,24.60
2018-03-29T10:57:11.475Z,22.23
2018-03-29T10:59:41.119Z,23.30
2018-03-29T11:02:09.975Z,22.00
2018-03-29T11:04:39.582Z,23.23
2018-03-29T11:07:09.226Z,23.87
2018-03-29T11:09:38.082Z,24.67
2018-03-29T11:12:07.687Z,26.27
2018-03-29T11:14:37.316Z,25.67
2018-03-29T11:17:06.133Z,28.53
2018-03-29T11:19:35.003Z,27.43
2018-03-29T11:22:03.935Z,30.67
2018-03-29T11:24:32.792Z,28.57
2018-03-29T11:27:01.679Z,30.87
2018-03-29T11:29:30.542Z,29.60
2018-03-29T11:31:59.405Z,28.93
2018-03-29T11:34:28.287Z,29.30
2018-03-29T11:36:57.150Z,30.47
2018-03-29T11:39:26.013Z,27.80
2018-03-29T11:41:54.872Z,28.43
2018-03-29T11:44:24.482Z,27.97
2018-03-29T11:46:54.142Z,28.80
2018-03-29T11:49:22.982Z,28.63
2018-03-29T11:51:51.837Z,26.00
2018-03-29T11:54:20.688Z,27.07
2018-03-29T11:56:50.329Z,26.43
2018-03-29T11:59:19.208Z,26.53
2018-03-29T12:01:48.055Z,24.40
2018-03-29T12:04:16.936Z,24.57
2018-03-29T12:06:45.902Z,23.00
2018-03-29T12:09:14.751Z,25.13
2018-03-29T12:11:44.371Z,23.83
2018-03-29T12:14:13.224Z,25.30
2018-03-29T12:16:42.514Z,26.37
2018-03-29T12:19:11.363Z,27.30
2018-03-29T12:21:40.232Z,22.93
2018-03-29T12:24:09.884Z,17.73
2018-03-29T12:26:38.729Z,15.80
2018-03-29T12:29:07.742Z,12.60
2018-03-29T12:31:36.582Z,13.10
2018-03-29T12:34:06.215Z,13.83
2018-03-29T12:36:36.749Z,14.77
2018-03-29T12:39:07.799Z,16.13
2018-03-29T12:41:37.424Z,15.30
2018-03-29T12:44:06.266Z,18.43
2018-03-29T12:46:35.947Z,15.60
2018-03-29T12:49:05.210Z,15.87
2018-03-29T12:51:34.062Z,17.30
2018-03-29T12:54:03.692Z,18.60
2018-03-29T12:56:45.083Z,19.17
2018-03-29T12:59:13.918Z,18.90
2018-03-29T13:01:42.754Z,19.50
2018-03-29T13:04:11.624Z,20.87
2018-03-29T13:06:41.327Z,20.33
2018-03-29T13:09:10.147Z,20.77
2018-03-29T13:11:40.988Z,18.63
2018-03-29T13:14:09.862Z,19.40
2018-03-29T13:16:39.581Z,18.40
2018-03-29T13:19:08.562Z,13.93
2018-03-29T13:21:38.898Z,15.00
2018-03-29T13:24:09.135Z,14.33
2018-03-29T13:26:38.031Z,12.63
2018-03-29T13:29:06.868Z,13.20
2018-03-29T13:31:36.491Z,14.00
2018-03-29T13:34:05.475Z,14.70
2018-03-29T13:36:35.875Z,14.07
2018-03-29T13:39:05.525Z,12.43
2018-03-29T13:41:34.365Z,16.63
2018-03-29T13:44:03.215Z,14.40
2018-03-29T13:46:32.069Z,15.53
2018-03-29T13:49:01.677Z,9.40
2018-03-29T13:51:31.300Z,8.83
2018-03-29T13:54:00.863Z,7.27
2018-03-29T13:56:29.718Z,8.53
2018-03-29T13:58:58.565Z,8.90
2018-03-29T14:01:27.396Z,8.40
2018-03-29T14:03:56.239Z,9.40
2018-03-29T14:06:25.855Z,8.30
2018-03-29T14:08:56.071Z,6.33
2018-03-29T14:11:25.070Z,5.10
2018-03-29T14:13:54.675Z,4.40
2018-03-29T14:16:23.660Z,3.87
2018-03-29T14:18:52.501Z,4.57
2018-03-29T14:21:21.406Z,2.17
2018-03-29T14:23:50.246Z,3.97
2018-03-29T14:26:19.891Z,4.07
2018-03-29T14:28:48.756Z,3.90
2018-03-29T14:31:17.584Z,3.87
2018-03-29T14:33:46.397Z,2.90
2018-03-29T14:36:16.020Z,3.13
2018-03-29T14:38:44.895Z,3.10
2018-03-29T14:41:14.793Z,3.80
2018-03-29T14:43:43.626Z,3.87
2018-03-29T14:46:13.260Z,4.20
2018-03-29T14:48:42.112Z,4.33
2018-03-29T14:51:11.715Z,4.30
2018-03-29T14:53:40.581Z,4.20
2018-03-29T14:56:09.398Z,5.30
2018-03-29T14:58:38.987Z,4.57
2018-03-29T15:01:08.134Z,4.93
2018-03-29T15:03:36.982Z,5.00
2018-03-29T15:06:05.807Z,5.20
2018-03-29T15:08:34.663Z,7.37
2018-03-29T15:11:03.502Z,5.80
2018-03-29T15:13:32.374Z,5.83
2018-03-29T15:16:01.958Z,6.53
2018-03-29T15:18:31.561Z,5.80
2018-03-29T15:21:01.247Z,6.10
2018-03-29T15:23:30.100Z,8.10
2018-03-29T15:25:58.929Z,8.20
2018-03-29T15:28:27.815Z,8.60
2018-03-29T15:30:56.662Z,9.37
2018-03-29T15:33:25.617Z,8.70
2018-03-29T15:35:54.460Z,9.07
2018-03-29T15:38:23.290Z,7.37
2018-03-29T15:40:52.118Z,7.07
2018-03-29T15:43:20.952Z,7.27
2018-03-29T15:45:49.854Z,7.67
2018-03-29T15:48:18.685Z,8.23
2018-03-29T15:50:47.588Z,7.37
2018-03-29T15:53:17.754Z,7.17
2018-03-29T15:55:46.588Z,7.30
2018-03-29T15:58:16.187Z,6.17
2018-03-29T16:00:45.812Z,5.50
2018-03-29T16:03:14.667Z,6.20
2018-03-29T16:05:44.267Z,6.23
2018-03-29T16:08:13.089Z,6.20
2018-03-29T16:10:42.708Z,7.53
2018-03-29T16:13:11.640Z,7.50
2018-03-29T16:15:40.455Z,7.70
2018-03-29T16:18:09.335Z,7.70
2018-03-29T16:20:38.520Z,7.97
2018-03-29T16:23:07.358Z,8.40
2018-03-29T16:25:37.033Z,7.83
2018-03-29T16:28:05.852Z,8.73
2018-03-29T16:30:34.715Z,7.53
2018-03-29T16:33:05.060Z,7.30
2018-03-29T16:35:34.695Z,8.20
2018-03-29T16:38:03.531Z,9.13
2018-03-29T16:40:33.129Z,8.00
2018-03-29T16:43:01.978Z,8.67
2018-03-29T16:45:30.805Z,9.07
2018-03-29T16:47:59.636Z,9.33
2018-03-29T16:50:28.483Z,9.23
2018-03-29T16:52:57.360Z,10.30
2018-03-29T16:55:26.981Z,9.10
2018-03-29T16:57:55.816Z,10.40
2018-03-29T17:00:24.692Z,9.53
2018-03-29T17:02:53.540Z,9.50
2018-03-29T17:05:23.141Z,9.20
2018-03-29T17:07:52.758Z,9.77
2018-03-29T17:10:22.374Z,17.43
2018-03-29T17:12:51.618Z,11.70
2018-03-29T17:15:20.461Z,19.00
2018-03-29T17:17:49.348Z,14.10
2018-03-29T17:20:18.204Z,17.97
2018-03-29T17:22:48.647Z,29.20
2018-03-29T17:25:18.280Z,14.77
2018-03-29T17:27:47.173Z,13.03
2018-03-29T17:30:16.025Z,11.60
2018-03-29T17:32:45.666Z,12.43
2018-03-29T17:35:14.521Z,14.30
2018-03-29T17:37:44.154Z,14.53
2018-03-29T17:40:13.026Z,14.17
2018-03-29T17:42:42.753Z,11.20
2018-03-29T17:45:12.347Z,13.23
2018-03-29T17:47:41.242Z,31.10
2018-03-29T17:50:10.871Z,39.17
2018-03-29T17:52:39.722Z,15.57
2018-03-29T17:55:08.569Z,21.03
2018-03-29T17:57:37.460Z,17.80
2018-03-29T18:00:06.302Z,19.57
2018-03-29T18:02:36.060Z,12.53
2018-03-29T18:05:04.925Z,13.27
2018-03-29T18:07:34.574Z,13.80
2018-03-29T18:10:03.426Z,16.07
2018-03-29T18:12:33.060Z,15.20
2018-03-29T18:15:01.914Z,13.90
2018-03-29T18:17:31.581Z,13.30
2018-03-29T18:20:00.599Z,16.20
2018-03-29T18:22:29.452Z,16.00
2018-03-29T18:24:58.316Z,16.23
2018-03-29T18:27:27.975Z,20.63
2018-03-29T18:29:56.841Z,20.90
2018-03-29T18:32:25.678Z,23.20
2018-03-29T18:34:55.359Z,25.50
2018-03-29T18:37:24.208Z,28.30
2018-03-29T18:39:53.063Z,29.80
2018-03-29T18:42:22.678Z,25.03
2018-03-29T18:44:52.289Z,24.00
2018-03-29T18:47:21.926Z,23.23
2018-03-29T18:49:50.780Z,21.70
2018-03-29T18:52:21.592Z,18.83
2018-03-29T18:54:50.447Z,16.40
2018-03-29T18:57:20.070Z,16.50
2018-03-29T18:59:48.896Z,14.53
2018-03-29T19:02:17.734Z,16.47
2018-03-29T19:04:47.385Z,14.77
2018-03-29T19:07:16.223Z,15.83
2018-03-29T19:09:45.145Z,16.60
2018-03-29T19:12:13.962Z,15.53
2018-03-29T19:14:43.147Z,16.40
2018-03-29T19:17:11.997Z,17.80
2018-03-29T19:19:41.203Z,16.80
2018-03-29T19:22:10.880Z,17.30
2018-03-29T19:24:39.751Z,17.30
2018-03-29T19:27:08.592Z,17.90
2018-03-29T19:29:38.233Z,18.73
2018-03-29T19:32:07.121Z,17.17
2018-03-29T19:34:35.965Z,18.17
2018-03-29T19:37:04.843Z,16.20
2018-03-29T19:39:33.909Z,16.90
2018-03-29T19:42:02.783Z,18.27
2018-03-29T19:44:31.635Z,19.87
2018-03-29T19:47:01.253Z,19.17
2018-03-29T19:49:30.892Z,17.37
2018-03-29T19:51:59.744Z,29.90
2018-03-29T19:54:29.774Z,20.57
2018-03-29T19:56:58.959Z,20.63
2018-03-29T19:59:27.828Z,21.70
2018-03-29T20:01:56.677Z,21.90
2018-03-29T20:04:25.522Z,20.83
2018-03-29T20:06:55.518Z,20.80
2018-03-29T20:09:24.372Z,20.20
2018-03-29T20:11:54.026Z,19.97
2018-03-29T20:14:23.128Z,20.33
2018-03-29T20:16:52.032Z,21.77
2018-03-29T20:19:20.844Z,21.27
2018-03-29T20:21:49.695Z,21.83
2018-03-29T20:24:18.531Z,18.40
2018-03-29T20:26:47.413Z,22.67
2018-03-29T20:29:16.259Z,22.00
2018-03-29T20:31:45.108Z,22.60
2018-03-29T20:34:14.017Z,24.83
2018-03-29T20:36:43.623Z,23.40
2018-03-29T20:39:13.273Z,22.87
2018-03-29T20:41:42.184Z,23.17
2018-03-29T20:44:11.040Z,24.40
2018-03-29T20:46:40.184Z,24.17
2018-03-29T20:49:09.042Z,20.97
2018-03-29T20:51:37.919Z,21.93
2018-03-29T20:54:06.809Z,22.97
2018-03-29T20:56:37.974Z,21.97
2018-03-29T20:59:07.215Z,21.27
2018-03-29T21:01:36.844Z,21.80
2018-03-29T21:04:14.423Z,22.50
2018-03-29T21:06:45.479Z,22.90
2018-03-29T21:09:14.353Z,25.73
2018-03-29T21:11:43.182Z,25.90
2018-03-29T21:14:12.056Z,25.80
2018-03-29T21:16:41.009Z,23.77
2018-03-29T21:19:10.627Z,26.30
2018-03-29T21:21:39.478Z,26.40
2018-03-29T21:24:08.331Z,28.17
2018-03-29T21:26:37.179Z,24.70
2018-03-29T21:29:06.016Z,24.80
2018-03-29T21:31:34.862Z,24.77
2018-03-29T21:34:04.484Z,23.90
2018-03-29T21:36:33.333Z,25.60
2018-03-29T21:39:02.183Z,22.63
2018-03-29T21:41:31.101Z,21.63
2018-03-29T21:43:59.963Z,21.50
2018-03-29T21:46:28.831Z,22.40
2018-03-29T21:48:57.691Z,22.77
2018-03-29T21:51:26.542Z,21.87
2018-03-29T21:53:55.397Z,21.77
2018-03-29T21:56:24.307Z,23.77
2018-03-29T21:58:53.154Z,25.67
2018-03-29T22:01:22.758Z,22.30
2018-03-29T22:03:52.379Z,22.97
2018-03-29T22:06:22.001Z,24.10
2018-03-29T22:08:51.624Z,21.67
2018-03-29T22:11:20.498Z,24.80
2018-03-29T22:13:50.282Z,26.07
2018-03-29T22:16:19.892Z,26.37
2018-03-29T22:18:49.093Z,28.67
2018-03-29T22:21:18.723Z,37.23
2018-03-29T22:23:48.331Z,33.37
2018-03-29T22:26:17.169Z,29.97
2018-03-29T22:28:46.010Z,29.57
2018-03-29T22:31:14.862Z,31.80
2018-03-29T22:33:44.462Z,30.20
2018-03-29T22:36:14.134Z,29.67
2018-03-29T22:38:42.975Z,29.70
2018-03-29T22:41:12.609Z,27.70
2018-03-29T22:43:42.194Z,26.30
2018-03-29T22:46:11.832Z,29.80
2018-03-29T22:48:40.669Z,26.03
2018-03-29T22:51:09.515Z,27.20
2018-03-29T22:53:38.352Z,24.90
2018-03-29T22:56:07.989Z,27.07
2018-03-29T22:58:36.826Z,24.23
2018-03-29T23:01:06.434Z,21.87
2018-03-29T23:03:36.043Z,21.10
2018-03-29T23:06:05.677Z,22.67
2018-03-29T23:08:34.522Z,22.50
2018-03-29T23:11:04.267Z,24.10
2018-03-29T23:13:33.866Z,21.50
2018-03-29T23:16:03.490Z,21.90
2018-03-29T23:18:32.375Z,20.13
2018-03-29T23:21:01.234Z,19.40
2018-03-29T23:23:30.075Z,18.80
2018-03-29T23:25:58.902Z,19.00
2018-03-29T23:28:27.758Z,17.43
2018-03-29T23:30:56.590Z,18.67
2018-03-29T23:33:26.214Z,16.40
2018-03-29T23:35:55.824Z,17.20
2018-03-29T23:38:25.458Z,13.73
2018-03-29T23:40:54.286Z,14.10
2018-03-29T23:43:23.157Z,12.53
2018-03-29T23:45:51.994Z,14.17
2018-03-29T23:48:21.618Z,14.97
2018-03-29T23:50:51.251Z,13.73
2018-03-29T23:53:20.101Z,12.37
2018-03-29T23:55:48.966Z,14.20
2018-03-29T23:58:17.810Z,12.13
